Terminal Aerodrome Forecast
Issued by NWS Pendleton, OR

Home | Current Version | Previous Version | Text Only | Print | Product List | Glossary On
Versions: 1 2 3 4 5 6 7 8 9 10 11 12 13 14 15 16 17 18 19 20 21 22 23 24 25 26
000
FTUS46 KPDT 202320
TAFPDT
TAF
KPDT 202320Z 2100/2124 21005KT P6SM SCT050 BKN120
     FM210200 03006KT P6SM BKN045 OVC100
     FM210300 06006KT P6SM -SHSN OVC040
     FM210700 VRB04KT 2SM -SN OVC025
     FM211100 04006KT P6SM BKN035=

USA.gov is the U.S. government's official web portal to all federal, state and local government web resources and services.